Time;durP1;ratioP1;P1;durP2;ratioP2;P2;SDS_P1;SDS_P2;PMS_P1;PMS_P2;Temp;Humidity;BMP_temperature;BMP_pressure;BME280_temperature;BME280_humidity;BME280_pressure;Samples;Min_cycle;Max_cycle;Signal;HPM_P1;HPM_P2
2022/10/16 00:00:16;;;;;;;16.17;14.50;;;;;;;15.45;100.00;98966.25;5065774;28;20204;-81
2022/10/16 00:02:48;;;;;;;15.83;14.30;;;;;;;15.44;100.00;98951.19;5067703;28;20199;-81
2022/10/16 00:05:17;;;;;;;15.13;13.57;;;;;;;15.46;100.00;98963.44;5072271;28;20193;-81
2022/10/16 00:07:45;;;;;;;16.40;13.50;;;;;;;15.49;100.00;98948.13;5065179;28;20226;-82
2022/10/16 00:10:14;;;;;;;14.80;13.17;;;;;;;15.54;100.00;98951.22;5064626;28;20220;-81
2022/10/16 00:12:44;;;;;;;15.53;13.50;;;;;;;15.53;100.00;98963.72;5067092;28;20299;-80
2022/10/16 00:15:13;;;;;;;14.77;13.23;;;;;;;15.49;100.00;98969.50;5068083;28;20219;-82
2022/10/16 00:17:42;;;;;;;15.50;13.50;;;;;;;15.35;100.00;98957.34;5069984;28;20200;-81
2022/10/16 00:20:10;;;;;;;15.47;13.20;;;;;;;15.33;100.00;98967.28;5031103;28;20232;-81
2022/10/16 00:22:39;;;;;;;16.40;13.50;;;;;;;15.33;100.00;98967.28;5054646;28;20699;-81
2022/10/16 00:25:08;;;;;;;13.30;12.03;;;;;;;15.28;100.00;98967.72;5067061;28;20203;-81
2022/10/16 00:27:37;;;;;;;12.40;11.30;;;;;;;15.36;100.00;98962.56;5067435;28;20233;-81
2022/10/16 00:30:09;;;;;;;11.47;10.30;;;;;;;15.40;100.00;98957.78;5065963;28;20220;-82
2022/10/16 00:32:38;;;;;;;14.50;9.93;;;;;;;15.48;100.00;98943.78;5032249;28;20193;-81
2022/10/16 00:35:08;;;;;;;11.10;9.80;;;;;;;15.46;100.00;98938.56;5068344;28;20188;-82
2022/10/16 00:37:37;;;;;;;12.17;9.67;;;;;;;15.44;100.00;98952.06;5062864;28;20195;-81
2022/10/16 00:40:09;;;;;;;10.33;8.70;;;;;;;15.41;100.00;98946.13;5072659;28;20196;-81
2022/10/16 00:42:38;;;;;;;9.23;7.90;;;;;;;15.42;100.00;98953.16;5063533;28;20193;-81
2022/10/16 00:45:12;;;;;;;9.47;7.57;;;;;;;15.39;100.00;98946.28;5069248;28;20244;-81
2022/10/16 00:47:44;;;;;;;7.93;7.17;;;;;;;15.43;100.00;98947.69;5030039;28;20198;-81
2022/10/16 00:50:21;;;;;;;9.43;7.13;;;;;;;15.27;100.00;98944.69;5025365;28;20351;-81
2022/10/16 00:52:55;;;;;;;7.23;6.63;;;;;;;15.24;100.00;98950.25;5024469;28;20221;-81
2022/10/16 00:55:25;;;;;;;7.50;6.80;;;;;;;15.31;100.00;98948.75;5028673;28;20230;-81
2022/10/16 00:57:53;;;;;;;9.80;7.20;;;;;;;15.29;100.00;98944.53;5030793;28;20243;-82
2022/10/16 01:00:27;;;;;;;11.63;8.93;;;;;;;15.39;100.00;98948.94;5025912;28;20194;-81
2022/10/16 01:02:57;;;;;;;10.20;8.63;;;;;;;15.33;100.00;98959.28;5006973;28;20198;-81
2022/10/16 01:05:30;;;;;;;12.30;8.40;;;;;;;15.10;100.00;98937.28;5041929;28;20192;-82
2022/10/16 01:08:08;;;;;;;9.33;8.43;;;;;;;15.17;100.00;98943.78;5067757;28;20196;-81
2022/10/16 01:10:40;;;;;;;8.97;8.07;;;;;;;15.09;100.00;98947.09;5070162;28;20285;-81
2022/10/16 01:13:12;;;;;;;8.57;7.07;;;;;;;15.09;100.00;98947.09;5069068;28;20192;-82
2022/10/16 01:15:49;;;;;;;10.53;7.13;;;;;;;-144.59;100.00;63158.22;5061176;28;20193;-81
2022/10/16 01:18:22;;;;;;;6.87;6.23;;;;;;;15.10;100.00;98974.63;5065321;28;20544;-81
2022/10/16 01:20:55;;;;;;;7.33;6.10;;;;;;;15.05;100.00;98971.50;5013664;28;20193;-81
2022/10/16 01:23:36;;;;;;;12.03;6.30;;;;;;;15.06;100.00;98974.06;5070531;28;20204;-82
2022/10/16 01:26:29;;;;;;;7.63;6.37;;;;;;;15.12;100.00;98978.84;5072191;28;20241;-81
2022/10/16 01:29:10;;;;;;;7.33;6.17;;;;;;;15.04;100.00;98978.66;5063378;28;20200;-81
2022/10/16 01:31:42;;;;;;;9.97;5.67;;;;;;;15.07;100.00;98972.22;5065340;28;20200;-81
2022/10/16 01:34:15;;;;;;;7.07;5.93;;;;;;;15.08;100.00;98997.94;5071467;28;20204;-81
2022/10/16 01:36:51;;;;;;;6.87;5.50;;;;;;;15.06;100.00;98987.41;5072223;28;20246;-82
2022/10/16 01:39:24;;;;;;;6.83;5.13;;;;;;;-144.59;100.00;98987.41;5072575;28;20195;-81
2022/10/16 01:42:04;;;;;;;8.83;5.27;;;;;;;15.07;100.00;98988.22;5065439;28;20192;-81
2022/10/16 01:44:36;;;;;;;5.47;4.67;;;;;;;15.05;100.00;98985.66;5073488;28;20632;-81
2022/10/16 01:47:06;;;;;;;5.00;4.50;;;;;;;15.02;100.00;98980.59;5028434;28;20434;-82
2022/10/16 01:49:40;;;;;;;9.10;4.77;;;;;;;15.09;100.00;98986.28;5029664;28;20213;-81
2022/10/16 01:52:12;;;;;;;5.53;4.53;;;;;;;15.08;100.00;98974.75;5031378;28;20213;-81
2022/10/16 01:54:45;;;;;;;8.03;4.17;;;;;;;14.98;100.00;98957.84;5029751;28;20251;-82
2022/10/16 01:57:15;;;;;;;4.80;3.77;;;;;;;14.92;100.00;98958.38;5027675;28;20200;-81
2022/10/16 01:59:48;;;;;;;3.97;3.57;;;;;;;14.90;100.00;98952.31;5018445;28;20652;-81
2022/10/16 02:02:20;;;;;;;4.90;3.10;;;;;;;14.88;100.00;98954.28;5028405;28;20196;-81
2022/10/16 02:04:54;;;;;;;3.60;3.30;;;;;;;14.85;100.00;98960.69;5034578;28;20245;-81
2022/10/16 02:07:23;;;;;;;6.57;3.87;;;;;;;14.84;100.00;98966.16;5073196;28;20184;-82
2022/10/16 02:09:52;;;;;;;4.07;3.67;;;;;;;15.00;100.00;98979.06;4984040;28;20219;-81
2022/10/16 02:12:27;;;;;;;4.70;3.50;;;;;;;14.89;100.00;98978.16;4994195;28;20246;-82
2022/10/16 02:14:58;;;;;;;5.70;3.97;;;;;;;15.02;100.00;98985.09;4993919;28;20205;-82
2022/10/16 02:17:28;;;;;;;5.23;4.20;;;;;;;14.95;100.00;98979.44;4993548;28;20200;-81
2022/10/16 02:19:58;;;;;;;4.77;4.27;;;;;;;14.79;100.00;98971.06;4993806;28;20710;-81
2022/10/16 02:22:30;;;;;;;8.93;4.70;;;;;;;14.72;100.00;98961.88;4987001;28;20231;-81
2022/10/16 02:25:02;;;;;;;7.80;5.10;;;;;;;14.66;100.00;98965.88;4986678;28;20238;-81
2022/10/16 02:27:36;;;;;;;8.43;4.93;;;;;;;14.73;100.00;98964.41;4999248;28;20253;-81
2022/10/16 02:30:12;;;;;;;5.43;4.80;;;;;;;14.77;100.00;98965.00;4971375;28;20752;-81
2022/10/16 02:32:46;;;;;;;6.53;5.37;;;;;;;14.81;100.00;98961.94;4967288;28;20207;-81
2022/10/16 02:35:16;;;;;;;7.53;6.13;;;;;;;14.73;100.00;98977.75;4970663;28;20196;-81
2022/10/16 02:37:45;;;;;;;7.23;6.50;;;;;;;14.73;100.00;98985.72;4964672;28;20256;-81
2022/10/16 02:40:14;;;;;;;6.97;6.23;;;;;;;14.65;100.00;98985.53;4978165;28;20219;-81
2022/10/16 02:42:52;;;;;;;8.00;5.50;;;;;;;14.74;100.00;98992.75;4977748;28;20206;-82
2022/10/16 02:45:23;;;;;;;7.50;6.80;;;;;;;14.63;100.00;98987.47;4982540;28;20199;-81
2022/10/16 02:47:52;;;;;;;8.00;6.63;;;;;;;14.72;100.00;98988.53;5024257;28;20204;-81
2022/10/16 02:50:24;;;;;;;7.77;6.83;;;;;;;14.63;100.00;98995.47;5068315;28;20265;-82
2022/10/16 02:52:52;;;;;;;11.63;7.87;;;;;;;14.84;100.00;98999.00;5067459;28;20208;-81
2022/10/16 02:55:21;;;;;;;10.40;8.10;;;;;;;14.80;100.00;99007.41;5071808;28;20240;-82
2022/10/16 02:57:50;;;;;;;11.50;8.60;;;;;;;-143.23;100.00;99007.41;5064802;28;20271;-82
2022/10/16 03:00:19;;;;;;;9.70;8.30;;;;;;;14.83;100.00;99000.00;5014106;28;20188;-82
2022/10/16 03:02:49;;;;;;;9.47;8.17;;;;;;;14.77;100.00;99005.00;5069524;28;20184;-81
2022/10/16 03:05:18;;;;;;;15.63;8.23;;;;;;;14.71;100.00;99001.03;5076563;28;20234;-82
2022/10/16 03:07:47;;;;;;;10.70;8.63;;;;;;;14.75;100.00;99013.09;5075335;28;20196;-82
2022/10/16 03:10:16;;;;;;;12.00;8.83;;;;;;;14.57;100.00;99031.50;5081128;28;20208;-81
2022/10/16 03:12:44;;;;;;;9.73;8.57;;;;;;;14.73;100.00;99022.22;5068702;28;20221;-81
2022/10/16 03:15:12;;;;;;;13.30;9.57;;;;;;;14.78;100.00;99039.53;5070199;28;20196;-80
2022/10/16 03:17:40;;;;;;;13.03;10.03;;;;;;;14.54;100.00;99042.41;5063589;28;20222;-80
2022/10/16 03:20:12;;;;;;;10.53;8.90;;;;;;;14.79;100.00;99046.56;5063177;28;20647;-81
2022/10/16 03:22:40;;;;;;;12.63;9.77;;;;;;;14.79;100.00;99038.56;5062543;28;20254;-80
2022/10/16 03:25:09;;;;;;;15.10;10.67;;;;;;;14.92;100.00;99037.53;5069431;28;20724;-81
2022/10/16 03:27:37;;;;;;;14.77;11.00;;;;;;;14.98;100.00;99039.69;5068169;28;20204;-81
2022/10/16 03:30:07;;;;;;;15.43;11.23;;;;;;;14.87;100.00;99029.94;5067250;28;20204;-80
2022/10/16 03:32:35;;;;;;;15.33;11.27;;;;;;;14.87;100.00;99029.94;5071242;28;20192;-80
2022/10/16 03:35:04;;;;;;;14.97;11.77;;;;;;;14.88;100.00;99029.78;5066484;28;20241;-81
2022/10/16 03:37:34;;;;;;;14.77;11.73;;;;;;;14.95;100.00;99048.78;5062883;28;20214;-81
2022/10/16 03:40:02;;;;;;;16.10;11.50;;;;;;;15.00;100.00;99051.91;5065635;28;20191;-81
2022/10/16 03:42:32;;;;;;;16.37;11.93;;;;;;;15.10;100.00;99057.31;5072298;28;20196;-81
2022/10/16 03:45:00;;;;;;;18.07;12.80;;;;;;;15.06;100.00;99067.41;5070832;28;20188;-82
2022/10/16 03:47:28;;;;;;;17.20;12.50;;;;;;;15.05;100.00;99068.38;5069064;28;20258;-82
2022/10/16 03:49:57;;;;;;;17.70;12.10;;;;;;;14.99;100.00;99050.22;5065901;28;20185;-81
2022/10/16 03:52:25;;;;;;;17.23;13.03;;;;;;;15.00;100.00;99053.75;5066870;28;20262;-81
2022/10/16 03:54:55;;;;;;;16.63;12.13;;;;;;;14.99;100.00;99057.38;5072353;28;20204;-81
2022/10/16 03:57:24;;;;;;;18.40;12.93;;;;;;;14.99;100.00;99057.38;5068930;28;20200;-81
2022/10/16 03:59:53;;;;;;;14.37;12.00;;;;;;;15.10;100.00;99057.31;5075077;28;20196;-82
2022/10/16 04:02:23;;;;;;;19.27;13.57;;;;;;;14.89;100.00;99082.16;5069588;28;20239;-82
2022/10/16 04:04:51;;;;;;;14.10;10.83;;;;;;;15.01;100.00;99066.94;5066153;28;20710;-82
2022/10/16 04:07:20;;;;;;;15.63;11.47;;;;;;;14.86;100.00;99063.75;5064447;28;20826;-81
2022/10/16 04:09:49;;;;;;;18.20;11.90;;;;;;;14.98;100.00;99048.53;5074274;28;20242;-82
2022/10/16 04:12:18;;;;;;;18.00;12.77;;;;;;;15.00;100.00;99037.72;5065744;28;20228;-81
2022/10/16 04:14:47;;;;;;;17.00;12.60;;;;;;;14.89;100.00;99055.47;5073031;28;20195;-81
2022/10/16 04:17:15;;;;;;;17.27;12.93;;;;;;;14.98;100.00;99069.03;5047951;28;20189;-81
2022/10/16 04:19:44;;;;;;;14.97;10.83;;;;;;;14.94;100.00;99091.59;5062915;28;20229;-81
2022/10/16 04:22:12;;;;;;;20.73;12.27;;;;;;;15.07;100.00;99103.78;5066851;28;20238;-81
2022/10/16 04:24:41;;;;;;;14.93;11.17;;;;;;;15.07;100.00;99103.78;5066223;28;20193;-82
2022/10/16 04:27:10;;;;;;;16.53;11.70;;;;;;;14.92;100.00;99105.03;5068657;28;20232;-82
2022/10/16 04:29:40;;;;;;;15.47;11.80;;;;;;;15.05;100.00;99111.03;5067477;28;20200;-82
2022/10/16 04:32:10;;;;;;;16.77;12.63;;;;;;;15.00;100.00;99120.44;5068245;28;20216;-82
2022/10/16 04:34:40;;;;;;;16.97;12.27;;;;;;;14.95;100.00;99115.44;5064443;28;20246;-82
2022/10/16 04:37:09;;;;;;;14.80;10.33;;;;;;;14.97;100.00;99092.19;5070451;28;20188;-81
2022/10/16 04:39:38;;;;;;;12.63;10.07;;;;;;;14.97;100.00;99092.19;5065821;28;20189;-82
2022/10/16 04:42:09;;;;;;;9.40;8.20;;;;;;;14.78;100.00;99108.03;5049522;28;20189;-82
2022/10/16 04:44:40;;;;;;;7.20;6.30;;;;;;;14.64;100.00;99117.13;5043728;28;20189;-82
2022/10/16 04:47:10;;;;;;;5.90;5.30;;;;;;;14.59;100.00;99106.00;5050973;28;20189;-82
2022/10/16 04:49:39;;;;;;;4.90;4.10;;;;;;;14.51;100.00;99098.63;5044111;28;20655;-81
2022/10/16 04:52:08;;;;;;;4.93;3.70;;;;;;;14.63;100.00;99099.44;5043483;28;20219;-82
2022/10/16 04:54:37;;;;;;;3.93;3.37;;;;;;;14.56;100.00;99076.91;5041609;28;20201;-82
2022/10/16 04:57:06;;;;;;;3.50;2.80;;;;;;;14.56;100.00;99076.91;5045579;28;20251;-82
2022/10/16 04:59:35;;;;;;;4.33;2.70;;;;;;;14.58;100.00;99075.00;5017340;28;20636;-81
2022/10/16 05:02:05;;;;;;;6.03;2.80;;;;;;;14.59;100.00;99061.53;5064027;28;20681;-82
2022/10/16 05:04:34;;;;;;;2.20;2.00;;;;;;;14.72;100.00;99052.53;5069612;28;20203;-82
2022/10/16 05:07:02;;;;;;;4.70;2.50;;;;;;;14.64;100.00;99036.31;5069700;28;20203;-82
2022/10/16 05:09:31;;;;;;;2.40;2.20;;;;;;;14.61;100.00;99029.41;5013739;28;20206;-81
2022/10/16 05:12:00;;;;;;;4.33;2.07;;;;;;;14.50;100.00;99027.66;5023168;28;20229;-82
2022/10/16 05:14:29;;;;;;;4.13;1.70;;;;;;;14.69;100.00;99026.97;5026984;28;20226;-83
2022/10/16 05:16:57;;;;;;;2.93;1.60;;;;;;;14.63;100.00;99029.28;4996963;28;20267;-82
2022/10/16 05:19:28;;;;;;;5.43;1.60;;;;;;;14.62;100.00;99019.59;5028523;28;20241;-82
2022/10/16 05:21:57;;;;;;;1.80;1.50;;;;;;;14.60;100.00;99017.91;5024775;28;20455;-80
2022/10/16 05:24:28;;;;;;;2.43;1.60;;;;;;;14.57;100.00;99027.97;5029622;28;20201;-80
2022/10/16 05:26:57;;;;;;;3.70;1.70;;;;;;;14.58;100.00;99029.69;5037536;28;20192;-80
2022/10/16 05:29:26;;;;;;;3.60;1.57;;;;;;;14.53;100.00;99026.53;5076066;28;20196;-82
2022/10/16 05:31:54;;;;;;;5.70;2.20;;;;;;;14.57;100.00;99022.63;5067334;28;20718;-83
2022/10/16 05:34:23;;;;;;;3.97;1.90;;;;;;;14.65;100.00;99022.00;5070466;28;20192;-83
2022/10/16 05:36:53;;;;;;;1.77;1.63;;;;;;;14.75;100.00;99010.44;5068470;28;20257;-82
2022/10/16 05:39:22;;;;;;;4.17;1.70;;;;;;;14.58;100.00;99013.69;5069724;28;20192;-83
2022/10/16 05:41:52;;;;;;;2.43;1.60;;;;;;;14.62;100.00;99020.44;5076068;28;20250;-82
2022/10/16 05:44:20;;;;;;;1.97;1.70;;;;;;;14.40;100.00;99012.50;5071229;28;20199;-82
2022/10/16 05:46:49;;;;;;;2.23;1.67;;;;;;;14.53;100.00;99018.53;5068968;28;20195;-82
2022/10/16 05:49:17;;;;;;;3.60;1.60;;;;;;;14.46;100.00;99020.84;5071650;28;20643;-82
2022/10/16 05:51:48;;;;;;;2.47;1.77;;;;;;;14.46;100.00;99020.84;5072805;28;20215;-82
2022/10/16 05:54:19;;;;;;;4.30;1.70;;;;;;;14.46;100.00;99020.84;5074234;28;20320;-83
2022/10/16 05:56:48;;;;;;;2.33;1.80;;;;;;;14.48;100.00;99034.94;5075453;28;20188;-83
2022/10/16 05:59:17;;;;;;;2.20;2.00;;;;;;;14.47;100.00;99027.03;5069165;28;20189;-80
2022/10/16 06:01:46;;;;;;;3.83;2.17;;;;;;;14.62;100.00;99015.13;5075521;28;20394;-80
2022/10/16 06:04:14;;;;;;;6.20;2.83;;;;;;;14.62;100.00;99014.28;5073176;28;20208;-82
2022/10/16 06:06:43;;;;;;;3.73;2.80;;;;;;;14.62;100.00;99033.78;5066922;28;20562;-83
2022/10/16 06:09:12;;;;;;;5.07;3.43;;;;;;;14.59;100.00;99034.88;5081491;28;20193;-82
2022/10/16 06:11:42;;;;;;;5.53;3.50;;;;;;;14.51;100.00;99037.31;5074992;28;20279;-82
2022/10/16 06:14:11;;;;;;;5.20;4.73;;;;;;;14.64;100.00;99031.81;5069110;28;20211;-82
2022/10/16 06:16:43;;;;;;;7.93;6.07;;;;;;;14.62;100.00;99030.25;4989293;28;20191;-82
2022/10/16 06:19:14;;;;;;;10.00;7.13;;;;;;;14.66;100.00;99043.19;4987406;28;20250;-82
2022/10/16 06:21:42;;;;;;;12.40;7.97;;;;;;;14.74;100.00;99053.22;4933451;29;20197;-82
2022/10/16 06:24:11;;;;;;;10.00;8.63;;;;;;;14.72;100.00;99053.38;4935914;29;20193;-81
2022/10/16 06:26:41;;;;;;;9.90;8.93;;;;;;;14.78;100.00;99060.88;4930298;29;20197;-82
2022/10/16 06:29:10;;;;;;;13.27;9.27;;;;;;;14.72;100.00;99084.50;4916985;29;20252;-82
2022/10/16 06:31:38;;;;;;;12.33;10.60;;;;;;;14.77;100.00;99093.84;4931959;29;20193;-81
2022/10/16 06:34:09;;;;;;;11.80;10.60;;;;;;;14.78;100.00;99098.19;4940623;28;20743;-82
2022/10/16 06:36:37;;;;;;;11.37;10.17;;;;;;;14.78;100.00;99086.69;4970468;28;20199;-82
2022/10/16 06:39:07;;;;;;;12.53;10.80;;;;;;;14.93;100.00;99092.56;4983128;28;20204;-82
2022/10/16 06:41:36;;;;;;;14.03;11.80;;;;;;;14.91;100.00;99106.03;5050598;28;20652;-82
2022/10/16 06:44:09;;;;;;;14.47;11.70;;;;;;;14.99;100.00;99108.91;5047777;28;20197;-80
2022/10/16 06:46:38;;;;;;;11.93;10.67;;;;;;;15.00;100.00;99121.28;5052851;28;20193;-82
2022/10/16 06:49:15;;;;;;;17.07;11.67;;;;;;;14.96;100.00;99125.19;5046217;28;20197;-81
2022/10/16 06:51:47;;;;;;;14.37;11.43;;;;;;;15.01;100.00;99132.78;5006840;28;20230;-82
2022/10/16 06:54:19;;;;;;;16.03;13.03;;;;;;;15.05;100.00;99156.41;5017647;28;20653;-82
2022/10/16 06:56:49;;;;;;;16.50;12.87;;;;;;;14.92;100.00;99160.22;5033043;28;20189;-82
2022/10/16 06:59:20;;;;;;;12.37;11.13;;;;;;;15.09;100.00;99170.34;5029890;28;20193;-81
2022/10/16 07:01:49;;;;;;;11.83;9.53;;;;;;;15.14;100.00;99165.47;4972766;28;20254;-82
2022/10/16 07:04:18;;;;;;;11.60;10.40;;;;;;;15.08;100.00;99174.00;4972549;28;20254;-81
2022/10/16 07:06:46;;;;;;;12.20;10.20;;;;;;;15.09;100.00;99173.88;4971000;28;20219;-81
2022/10/16 07:09:15;;;;;;;12.37;11.00;;;;;;;15.20;100.00;99159.63;4967669;28;20196;-81
2022/10/16 07:11:43;;;;;;;12.27;11.07;;;;;;;15.15;100.00;99173.38;4967901;28;20222;-81
2022/10/16 07:14:17;;;;;;;10.93;9.83;;;;;;;15.24;100.00;99178.88;4967081;28;20274;-81
2022/10/16 07:16:48;;;;;;;11.23;10.13;;;;;;;15.20;100.00;99188.13;4992589;28;20242;-81
2022/10/16 07:19:17;;;;;;;13.40;10.47;;;;;;;15.21;100.00;99188.00;4970546;28;20199;-82
2022/10/16 07:21:48;;;;;;;12.73;11.40;;;;;;;15.21;100.00;99193.34;4925099;28;20360;-81
2022/10/16 07:24:18;;;;;;;11.87;9.80;;;;;;;15.28;100.00;99204.38;4970757;28;20643;-81
2022/10/16 07:26:48;;;;;;;10.70;9.10;;;;;;;15.27;100.00;99202.69;4997648;28;20194;-82
2022/10/16 07:29:19;;;;;;;12.37;10.53;;;;;;;15.24;100.00;99205.56;5029264;28;20283;-81
2022/10/16 07:31:49;;;;;;;10.20;9.20;;;;;;;15.30;100.00;99227.28;4986806;28;20199;-82
2022/10/16 07:34:21;;;;;;;11.43;10.30;;;;;;;15.31;100.00;99217.44;4991411;28;20750;-81
2022/10/16 07:36:50;;;;;;;11.80;10.03;;;;;;;15.25;100.00;99223.28;5001919;28;20186;-82
2022/10/16 07:39:18;;;;;;;13.50;9.70;;;;;;;15.33;100.00;99228.84;5027488;28;20190;-81
2022/10/16 07:41:47;;;;;;;11.27;9.43;;;;;;;15.47;100.00;99239.25;4969484;28;20202;-81
2022/10/16 07:44:17;;;;;;;10.00;8.27;;;;;;;15.47;100.00;99249.91;4953105;28;20223;-82
2022/10/16 07:46:46;;;;;;;9.33;8.43;;;;;;;15.44;100.00;99247.47;4968746;28;20262;-82
2022/10/16 07:49:17;;;;;;;8.30;7.50;;;;;;;15.43;100.00;99254.63;4985075;28;20202;-82
2022/10/16 07:51:46;;;;;;;9.53;7.50;;;;;;;15.32;100.00;99272.53;5008046;28;20262;-82
2022/10/16 07:54:15;;;;;;;9.57;7.83;;;;;;;15.29;100.00;99275.44;5009426;28;20218;-81
2022/10/16 07:56:47;;;;;;;9.70;7.27;;;;;;;15.37;100.00;99273.00;4970099;28;20368;-82
2022/10/16 07:59:15;;;;;;;7.57;6.80;;;;;;;15.37;100.00;99273.00;4953315;28;20207;-81
2022/10/16 08:01:48;;;;;;;8.70;7.10;;;;;;;15.35;100.00;99277.63;4966838;28;20300;-81
2022/10/16 08:04:22;;;;;;;8.20;6.70;;;;;;;15.52;100.00;99269.06;4950541;28;20239;-81
2022/10/16 08:06:50;;;;;;;8.53;6.70;;;;;;;15.56;100.00;99269.66;4966439;28;20250;-81
2022/10/16 08:09:19;;;;;;;6.77;6.00;;;;;;;15.51;100.00;99266.50;4950747;28;20226;-82
2022/10/16 08:11:47;;;;;;;7.83;6.40;;;;;;;15.47;100.00;99284.63;4903316;28;20259;-82
2022/10/16 08:14:16;;;;;;;6.53;5.80;;;;;;;15.64;100.00;99286.78;4856795;29;20224;-82
2022/10/16 08:16:45;;;;;;;7.17;6.30;;;;;;;15.65;100.00;99283.13;4854792;29;20200;-82
2022/10/16 08:19:15;;;;;;;7.30;5.93;;;;;;;15.74;100.00;99294.88;4852965;29;20244;-82
2022/10/16 08:21:48;;;;;;;7.23;5.57;;;;;;;15.78;100.00;99301.66;4865533;29;20195;-82
2022/10/16 08:24:17;;;;;;;7.70;5.90;;;;;;;15.79;100.00;99299.81;4874308;29;20311;-81
2022/10/16 08:26:48;;;;;;;5.70;5.20;;;;;;;15.73;100.00;99294.03;4880315;29;20273;-82
2022/10/16 08:29:19;;;;;;;6.37;5.23;;;;;;;15.88;100.00;99296.38;4893351;29;20205;-81
2022/10/16 08:31:47;;;;;;;7.80;5.30;;;;;;;15.93;100.00;99302.22;4949032;29;20216;-82
2022/10/16 08:34:16;;;;;;;5.53;4.93;;;;;;;16.02;100.00;99307.63;4943478;29;20252;-82
2022/10/16 08:36:47;;;;;;;5.97;5.20;;;;;;;16.02;100.00;99291.59;4946395;29;20188;-82
2022/10/16 08:39:17;;;;;;;6.73;4.97;;;;;;;16.02;100.00;99299.63;5011163;28;20196;-81
2022/10/16 08:42:27;;;;;;;8.40;4.93;;;;;;;15.94;100.00;99296.72;5046629;28;20284;-82
2022/10/16 08:45:15;;;;;;;6.27;5.00;;;;;;;16.10;100.00;99308.78;5048523;28;20223;-82
2022/10/16 08:47:55;;;;;;;6.30;4.70;;;;;;;15.98;100.00;99321.34;5047684;28;20219;-81
2022/10/16 08:50:28;;;;;;;5.00;4.37;;;;;;;15.94;100.00;99318.09;5048712;28;20189;-82
2022/10/16 08:53:00;;;;;;;6.20;3.90;;;;;;;16.08;100.00;99326.78;5062120;28;20193;-82
2022/10/16 08:55:38;;;;;;;5.57;3.97;;;;;;;16.07;100.00;99325.94;5052241;28;20255;-82
2022/10/16 08:58:16;;;;;;;5.20;4.57;;;;;;;16.19;100.00;99329.38;5054916;28;20280;-81
2022/10/16 09:00:49;;;;;;;5.60;4.60;;;;;;;16.35;100.00;99315.59;5038327;28;20204;-81
2022/10/16 09:03:31;;;;;;;5.70;4.10;;;;;;;16.23;100.00;99312.97;5057310;28;20197;-82
2022/10/16 09:06:21;;;;;;;4.60;4.10;;;;;;;16.25;100.00;99307.50;5045908;28;20652;-81
2022/10/16 09:09:11;;;;;;;4.73;4.00;;;;;;;16.38;100.00;99309.97;5052066;28;20247;-81
2022/10/16 09:11:57;;;;;;;3.60;3.30;;;;;;;16.80;100.00;99314.34;5024028;28;20279;-81
2022/10/16 09:14:52;;;;;;;4.40;4.00;;;;;;;16.98;100.00;99303.81;5051716;28;20224;-81
2022/10/16 09:17:31;;;;;;;4.73;4.33;;;;;;;17.04;100.00;99292.59;5048938;28;20193;-81
2022/10/16 09:20:19;;;;;;;5.37;3.70;;;;;;;16.76;100.00;99304.84;5048587;28;20205;-81
2022/10/16 09:22:47;;;;;;;4.30;3.17;;;;;;;16.68;100.00;99293.09;5045674;28;20196;-81
2022/10/16 09:25:22;;;;;;;3.40;2.97;;;;;;;16.85;100.00;99297.88;5049868;28;20193;-81
2022/10/16 09:27:54;;;;;;;6.33;3.03;;;;;;;16.85;100.00;99297.88;5050702;28;20224;-82
2022/10/16 09:30:29;;;;;;;4.27;3.10;;;;;;;17.45;100.00;99294.22;5068794;28;20254;-82
2022/10/16 09:33:01;;;;;;;5.07;3.13;;;;;;;17.71;100.00;99297.25;5074676;28;20276;-82
2022/10/16 09:35:38;;;;;;;5.80;3.20;;;;;;;17.83;100.00;99281.03;5066575;28;20250;-82
2022/10/16 09:38:08;;;;;;;7.53;4.50;;;;;;;17.37;100.00;99270.00;5068243;28;20242;-81
2022/10/16 09:40:43;;;;;;;3.60;3.17;;;;;;;17.39;100.00;99278.72;5035144;28;20246;-81
2022/10/16 09:43:24;;;;;;;3.53;3.00;;;;;;;17.76;100.00;99280.78;5013224;28;20234;-81
2022/10/16 09:45:59;;;;;;;3.73;3.30;;;;;;;17.77;100.00;99274.44;5013616;28;20234;-81
2022/10/16 09:48:33;;;;;;;3.80;2.20;;;;;;;17.55;100.00;99277.31;5011245;28;20222;-81
2022/10/16 09:51:04;;;;;;;3.97;2.70;;;;;;;17.56;100.00;99266.47;5008512;28;20210;-81
2022/10/16 09:53:43;;;;;;;2.10;1.80;;;;;;;17.25;100.00;99270.22;5011774;28;20240;-81
2022/10/16 09:56:23;;;;;;;3.27;2.10;;;;;;;17.46;100.00;99282.53;5010451;28;20248;-82
2022/10/16 09:58:53;;;;;;;3.20;2.00;;;;;;;17.58;100.00;99288.63;5005825;28;20206;-81
2022/10/16 10:01:24;;;;;;;2.07;1.30;;;;;;;17.42;100.00;99277.59;5037425;28;20208;-81
2022/10/16 10:04:00;;;;;;;1.60;1.30;;;;;;;17.41;100.00;99279.44;5072462;28;20197;-81
2022/10/16 10:06:32;;;;;;;1.87;1.43;;;;;;;17.59;100.00;99282.28;5081903;28;20203;-81
2022/10/16 10:09:16;;;;;;;1.33;1.10;;;;;;;17.74;100.00;99270.16;5069678;28;20200;-81
2022/10/16 10:12:01;;;;;;;2.33;1.03;;;;;;;17.61;100.00;99266.06;5070924;28;20674;-81
2022/10/16 10:14:40;;;;;;;1.80;1.20;;;;;;;17.72;100.00;99276.66;5090220;28;20211;-81
2022/10/16 10:17:20;;;;;;;4.00;1.30;;;;;;;17.62;100.00;99262.41;5093124;28;20195;-80
2022/10/16 10:19:51;;;;;;;2.00;1.23;;;;;;;17.65;100.00;99256.75;5087240;28;20267;-81
2022/10/16 10:22:33;;;;;;;0.80;0.80;;;;;;;17.63;100.00;99254.22;5083636;28;20230;-81
2022/10/16 10:25:24;;;;;;;0.90;0.90;;;;;;;17.71;100.00;99250.88;5091409;28;20199;-81
2022/10/16 10:28:35;;;;;;;1.43;1.10;;;;;;;18.00;100.00;99250.84;5088356;28;20194;-81
2022/10/16 10:31:10;;;;;;;2.23;1.10;;;;;;;18.19;100.00;99245.44;5050350;28;20300;-81
2022/10/16 10:33:46;;;;;;;1.53;0.90;;;;;;;18.01;100.00;99239.13;5048666;28;20192;-81
2022/10/16 10:36:30;;;;;;;1.83;1.07;;;;;;;18.16;100.00;99237.72;5072471;28;20227;-81
2022/10/16 10:39:02;;;;;;;1.30;1.20;;;;;;;18.55;100.00;99232.22;5050674;28;20193;-80
2022/10/16 10:42:14;;;;;;;2.33;1.00;;;;;;;18.56;100.00;99231.22;5046114;28;20200;-81
2022/10/16 10:45:09;;;;;;;0.80;0.80;;;;;;;18.80;100.00;99228.03;5051230;28;20207;-81
2022/10/16 10:47:48;;;;;;;4.63;1.80;;;;;;;18.34;100.00;99227.09;5052394;28;20215;-81
2022/10/16 10:50:25;;;;;;;1.47;1.00;;;;;;;18.53;100.00;99226.16;5045185;28;20201;-81
2022/10/16 10:53:07;;;;;;;2.47;1.50;;;;;;;18.70;100.00;99232.59;5050135;28;20189;-81
2022/10/16 10:55:44;;;;;;;1.20;1.10;;;;;;;18.77;100.00;99233.72;5047796;28;20258;-82
2022/10/16 10:58:44;;;;;;;2.50;0.90;;;;;;;18.54;100.00;99227.84;5030996;28;20641;-81
2022/10/16 11:01:23;;;;;;;0.97;0.90;;;;;;;19.17;100.00;99222.59;5014706;28;20224;-81
2022/10/16 11:04:15;;;;;;;1.63;0.90;;;;;;;18.62;100.00;99209.16;4969748;28;20238;-81
2022/10/16 11:06:48;;;;;;;2.53;0.70;;;;;;;18.96;100.00;99204.09;4968467;28;20192;-81
2022/10/16 11:09:19;;;;;;;1.90;0.80;;;;;;;18.72;100.00;99203.78;4970008;28;20278;-80
2022/10/16 11:11:55;;;;;;;0.93;0.60;;;;;;;18.58;100.00;99203.25;4969478;28;20262;-81
2022/10/16 11:14:32;;;;;;;1.13;0.90;;;;;;;18.84;100.00;99207.97;4972150;28;20258;-81
2022/10/16 11:17:09;;;;;;;2.60;0.70;;;;;;;19.28;100.00;99195.53;5028307;28;20195;-81
2022/10/16 11:19:46;;;;;;;5.67;1.03;;;;;;;19.44;100.00;99193.00;5027538;28;20238;-81
2022/10/16 11:22:20;;;;;;;2.07;0.70;;;;;;;19.83;100.00;99178.41;5068955;28;20199;-81
2022/10/16 11:24:57;;;;;;;2.60;0.90;;;;;;;19.70;100.00;99170.75;5092687;28;20217;-81
2022/10/16 11:27:38;;;;;;;2.77;0.80;;;;;;;19.60;100.00;99170.84;5090796;28;20229;-82
2022/10/16 11:30:17;;;;;;;1.63;0.80;;;;;;;19.78;100.00;99180.72;5083177;28;20211;-82
2022/10/16 11:33:02;;;;;;;1.73;0.90;;;;;;;19.54;100.00;99184.03;5084063;28;20199;-81
2022/10/16 11:35:54;;;;;;;1.73;0.80;;;;;;;19.57;100.00;99186.41;5089556;28;20242;-81
2022/10/16 11:38:32;;;;;;;1.97;0.90;;;;;;;19.33;100.00;99189.72;5093979;28;20199;-81
2022/10/16 11:41:09;;;;;;;1.00;0.80;;;;;;;19.80;100.00;99192.19;5087716;28;20187;-81
2022/10/16 11:43:44;;;;;;;1.60;0.70;;;;;;;20.07;100.00;99181.25;5085139;28;20195;-81